sensor_id;sensor_type;location;lat;lon;timestamp;temperature;humidity
19348;DHT22;9810;52.480;9.806;2022-08-19T00:01:57;19.10;99.90
19348;DHT22;9810;52.480;9.806;2022-08-19T00:04:27;19.00;99.90
19348;DHT22;9810;52.480;9.806;2022-08-19T00:06:54;19.00;99.90
19348;DHT22;9810;52.480;9.806;2022-08-19T00:09:23;19.00;99.90
19348;DHT22;9810;52.480;9.806;2022-08-19T00:11:51;19.10;99.90
19348;DHT22;9810;52.480;9.806;2022-08-19T00:14:23;19.10;99.90
19348;DHT22;9810;52.480;9.806;2022-08-19T00:16:51;19.10;99.90
19348;DHT22;9810;52.480;9.806;2022-08-19T00:19:20;19.20;99.90
19348;DHT22;9810;52.480;9.806;2022-08-19T00:21:47;19.20;99.90
19348;DHT22;9810;52.480;9.806;2022-08-19T00:24:15;19.20;99.90
19348;DHT22;9810;52.480;9.806;2022-08-19T00:26:43;19.20;99.90
19348;DHT22;9810;52.480;9.806;2022-08-19T00:29:13;19.00;99.90
19348;DHT22;9810;52.480;9.806;2022-08-19T00:31:42;19.00;99.90
19348;DHT22;9810;52.480;9.806;2022-08-19T00:34:10;19.00;99.90
19348;DHT22;9810;52.480;9.806;2022-08-19T00:36:39;19.20;99.90
19348;DHT22;9810;52.480;9.806;2022-08-19T00:39:06;19.00;99.90
19348;DHT22;9810;52.480;9.806;2022-08-19T00:41:34;18.80;99.90
19348;DHT22;9810;52.480;9.806;2022-08-19T00:44:05;18.90;99.90
19348;DHT22;9810;52.480;9.806;2022-08-19T00:46:34;18.80;99.90
19348;DHT22;9810;52.480;9.806;2022-08-19T00:49:09;18.90;99.90
19348;DHT22;9810;52.480;9.806;2022-08-19T00:51:37;18.80;99.90
19348;DHT22;9810;52.480;9.806;2022-08-19T00:54:04;18.80;99.90
19348;DHT22;9810;52.480;9.806;2022-08-19T00:56:32;18.70;99.90
19348;DHT22;9810;52.480;9.806;2022-08-19T00:59:01;18.70;99.90
19348;DHT22;9810;52.480;9.806;2022-08-19T01:01:29;18.60;99.90
19348;DHT22;9810;52.480;9.806;2022-08-19T01:03:57;18.70;99.90
19348;DHT22;9810;52.480;9.806;2022-08-19T01:06:27;18.70;99.90
19348;DHT22;9810;52.480;9.806;2022-08-19T01:08:56;18.50;99.90
19348;DHT22;9810;52.480;9.806;2022-08-19T01:11:23;18.50;99.90
19348;DHT22;9810;52.480;9.806;2022-08-19T01:13:52;18.50;99.90
19348;DHT22;9810;52.480;9.806;2022-08-19T01:16:22;18.50;99.90
19348;DHT22;9810;52.480;9.806;2022-08-19T01:18:51;18.70;99.90
19348;DHT22;9810;52.480;9.806;2022-08-19T01:21:22;18.70;99.90
19348;DHT22;9810;52.480;9.806;2022-08-19T01:23:52;18.50;99.90
19348;DHT22;9810;52.480;9.806;2022-08-19T01:26:22;18.50;99.90
19348;DHT22;9810;52.480;9.806;2022-08-19T01:28:51;18.30;99.90
19348;DHT22;9810;52.480;9.806;2022-08-19T01:31:21;18.30;99.90
19348;DHT22;9810;52.480;9.806;2022-08-19T01:33:51;18.40;99.90
19348;DHT22;9810;52.480;9.806;2022-08-19T01:36:23;18.20;99.90
19348;DHT22;9810;52.480;9.806;2022-08-19T01:38:54;18.10;99.90
19348;DHT22;9810;52.480;9.806;2022-08-19T01:41:21;18.10;99.90
19348;DHT22;9810;52.480;9.806;2022-08-19T01:43:49;18.20;99.90
19348;DHT22;9810;52.480;9.806;2022-08-19T01:46:18;18.30;99.90
19348;DHT22;9810;52.480;9.806;2022-08-19T01:48:46;18.50;99.90
19348;DHT22;9810;52.480;9.806;2022-08-19T01:51:14;18.40;99.90
19348;DHT22;9810;52.480;9.806;2022-08-19T01:53:42;18.30;99.90
19348;DHT22;9810;52.480;9.806;2022-08-19T01:56:11;18.30;99.90
19348;DHT22;9810;52.480;9.806;2022-08-19T01:58:41;18.20;99.90
19348;DHT22;9810;52.480;9.806;2022-08-19T02:01:10;18.20;99.90
19348;DHT22;9810;52.480;9.806;2022-08-19T02:03:38;18.20;99.90
19348;DHT22;9810;52.480;9.806;2022-08-19T02:06:05;18.10;99.90
19348;DHT22;9810;52.480;9.806;2022-08-19T02:08:35;18.10;99.90
19348;DHT22;9810;52.480;9.806;2022-08-19T02:11:03;18.00;99.90
19348;DHT22;9810;52.480;9.806;2022-08-19T02:13:33;18.00;99.90
19348;DHT22;9810;52.480;9.806;2022-08-19T02:16:01;18.10;99.90
19348;DHT22;9810;52.480;9.806;2022-08-19T02:18:28;18.00;99.90
19348;DHT22;9810;52.480;9.806;2022-08-19T02:20:56;17.90;99.90
19348;DHT22;9810;52.480;9.806;2022-08-19T02:23:24;17.90;99.90
19348;DHT22;9810;52.480;9.806;2022-08-19T02:25:52;17.80;99.90
19348;DHT22;9810;52.480;9.806;2022-08-19T02:28:20;17.80;99.90
19348;DHT22;9810;52.480;9.806;2022-08-19T02:30:48;17.80;99.90
19348;DHT22;9810;52.480;9.806;2022-08-19T02:33:16;17.80;99.90
19348;DHT22;9810;52.480;9.806;2022-08-19T02:35:45;17.90;99.90
19348;DHT22;9810;52.480;9.806;2022-08-19T02:38:13;17.80;99.90
19348;DHT22;9810;52.480;9.806;2022-08-19T02:40:54;18.00;99.90
19348;DHT22;9810;52.480;9.806;2022-08-19T02:43:20;17.90;99.90
19348;DHT22;9810;52.480;9.806;2022-08-19T02:45:49;17.90;99.90
19348;DHT22;9810;52.480;9.806;2022-08-19T02:48:18;18.00;99.90
19348;DHT22;9810;52.480;9.806;2022-08-19T02:50:46;18.00;99.90
19348;DHT22;9810;52.480;9.806;2022-08-19T02:53:13;18.00;99.90
19348;DHT22;9810;52.480;9.806;2022-08-19T02:55:45;17.90;99.90
19348;DHT22;9810;52.480;9.806;2022-08-19T02:58:14;17.90;99.90
19348;DHT22;9810;52.480;9.806;2022-08-19T03:00:42;17.90;99.90
19348;DHT22;9810;52.480;9.806;2022-08-19T03:03:12;18.00;99.90
19348;DHT22;9810;52.480;9.806;2022-08-19T03:05:40;17.90;99.90
19348;DHT22;9810;52.480;9.806;2022-08-19T03:08:07;17.80;99.90
19348;DHT22;9810;52.480;9.806;2022-08-19T03:10:41;17.80;99.90
19348;DHT22;9810;52.480;9.806;2022-08-19T03:13:10;17.80;99.90
19348;DHT22;9810;52.480;9.806;2022-08-19T03:15:40;17.70;99.90
19348;DHT22;9810;52.480;9.806;2022-08-19T03:18:08;17.80;99.90
19348;DHT22;9810;52.480;9.806;2022-08-19T03:20:41;17.80;99.90
19348;DHT22;9810;52.480;9.806;2022-08-19T03:23:09;17.80;99.90
19348;DHT22;9810;52.480;9.806;2022-08-19T03:25:38;17.90;99.90
19348;DHT22;9810;52.480;9.806;2022-08-19T03:28:09;17.90;99.90
19348;DHT22;9810;52.480;9.806;2022-08-19T03:30:37;17.60;99.90
19348;DHT22;9810;52.480;9.806;2022-08-19T03:33:05;17.70;99.90
19348;DHT22;9810;52.480;9.806;2022-08-19T03:35:32;17.60;99.90
19348;DHT22;9810;52.480;9.806;2022-08-19T03:38:04;17.80;99.90
19348;DHT22;9810;52.480;9.806;2022-08-19T03:40:32;17.70;99.90
19348;DHT22;9810;52.480;9.806;2022-08-19T03:43:03;17.60;99.90
19348;DHT22;9810;52.480;9.806;2022-08-19T03:45:31;17.60;99.90
19348;DHT22;9810;52.480;9.806;2022-08-19T03:47:58;17.70;99.90
19348;DHT22;9810;52.480;9.806;2022-08-19T03:50:26;17.70;99.90
19348;DHT22;9810;52.480;9.806;2022-08-19T03:52:53;17.80;99.90
19348;DHT22;9810;52.480;9.806;2022-08-19T03:55:22;17.70;99.90
19348;DHT22;9810;52.480;9.806;2022-08-19T03:57:49;17.70;99.90
19348;DHT22;9810;52.480;9.806;2022-08-19T04:00:17;17.70;99.90
19348;DHT22;9810;52.480;9.806;2022-08-19T04:02:44;17.80;99.90
19348;DHT22;9810;52.480;9.806;2022-08-19T04:05:12;17.90;99.90
19348;DHT22;9810;52.480;9.806;2022-08-19T04:07:40;17.70;99.90
19348;DHT22;9810;52.480;9.806;2022-08-19T04:10:08;17.70;99.90
19348;DHT22;9810;52.480;9.806;2022-08-19T04:12:37;17.80;99.90
19348;DHT22;9810;52.480;9.806;2022-08-19T04:15:05;17.90;99.90
19348;DHT22;9810;52.480;9.806;2022-08-19T04:17:33;17.80;99.90
19348;DHT22;9810;52.480;9.806;2022-08-19T04:20:01;17.90;99.90
19348;DHT22;9810;52.480;9.806;2022-08-19T04:22:28;17.90;99.90
19348;DHT22;9810;52.480;9.806;2022-08-19T04:24:56;17.80;99.90
19348;DHT22;9810;52.480;9.806;2022-08-19T04:27:23;17.70;99.90
19348;DHT22;9810;52.480;9.806;2022-08-19T04:29:52;17.80;99.90
19348;DHT22;9810;52.480;9.806;2022-08-19T04:32:19;17.90;99.90
19348;DHT22;9810;52.480;9.806;2022-08-19T04:34:48;17.70;99.90
19348;DHT22;9810;52.480;9.806;2022-08-19T04:37:15;17.70;99.90
19348;DHT22;9810;52.480;9.806;2022-08-19T04:39:42;17.50;99.90
19348;DHT22;9810;52.480;9.806;2022-08-19T04:42:26;17.30;99.90
19348;DHT22;9810;52.480;9.806;2022-08-19T04:45:10;17.40;99.90
19348;DHT22;9810;52.480;9.806;2022-08-19T04:47:38;17.40;99.90
19348;DHT22;9810;52.480;9.806;2022-08-19T04:50:07;17.30;99.90
19348;DHT22;9810;52.480;9.806;2022-08-19T04:52:34;17.20;99.90
19348;DHT22;9810;52.480;9.806;2022-08-19T04:55:02;17.10;99.90
19348;DHT22;9810;52.480;9.806;2022-08-19T04:57:31;17.00;99.90
19348;DHT22;9810;52.480;9.806;2022-08-19T04:59:58;16.90;99.90
19348;DHT22;9810;52.480;9.806;2022-08-19T05:02:27;16.90;99.90
19348;DHT22;9810;52.480;9.806;2022-08-19T05:04:56;17.00;99.90
19348;DHT22;9810;52.480;9.806;2022-08-19T05:07:26;17.00;99.90
19348;DHT22;9810;52.480;9.806;2022-08-19T05:09:54;17.00;99.90
19348;DHT22;9810;52.480;9.806;2022-08-19T05:12:22;17.00;99.90
19348;DHT22;9810;52.480;9.806;2022-08-19T05:14:49;17.00;99.90
19348;DHT22;9810;52.480;9.806;2022-08-19T05:17:17;17.10;99.90
19348;DHT22;9810;52.480;9.806;2022-08-19T05:19:46;17.20;99.90
19348;DHT22;9810;52.480;9.806;2022-08-19T05:22:30;17.30;99.90
19348;DHT22;9810;52.480;9.806;2022-08-19T05:25:05;17.30;99.90
19348;DHT22;9810;52.480;9.806;2022-08-19T05:27:32;17.20;99.90
19348;DHT22;9810;52.480;9.806;2022-08-19T05:30:00;17.30;99.90
19348;DHT22;9810;52.480;9.806;2022-08-19T05:32:27;17.20;99.90
19348;DHT22;9810;52.480;9.806;2022-08-19T05:34:57;17.10;99.90
19348;DHT22;9810;52.480;9.806;2022-08-19T05:37:24;17.30;99.90
19348;DHT22;9810;52.480;9.806;2022-08-19T05:39:53;17.10;99.90
19348;DHT22;9810;52.480;9.806;2022-08-19T05:42:22;17.20;99.90
19348;DHT22;9810;52.480;9.806;2022-08-19T05:44:50;17.20;99.90
19348;DHT22;9810;52.480;9.806;2022-08-19T05:47:18;17.30;99.90
19348;DHT22;9810;52.480;9.806;2022-08-19T05:49:45;17.30;99.90
19348;DHT22;9810;52.480;9.806;2022-08-19T05:52:15;17.20;99.90
19348;DHT22;9810;52.480;9.806;2022-08-19T05:54:43;17.10;99.90
19348;DHT22;9810;52.480;9.806;2022-08-19T05:57:13;17.30;99.90
19348;DHT22;9810;52.480;9.806;2022-08-19T05:59:41;17.50;99.90
19348;DHT22;9810;52.480;9.806;2022-08-19T06:02:09;17.60;99.90
19348;DHT22;9810;52.480;9.806;2022-08-19T06:04:36;17.50;99.90
19348;DHT22;9810;52.480;9.806;2022-08-19T06:07:04;17.50;99.90
19348;DHT22;9810;52.480;9.806;2022-08-19T06:09:53;17.80;99.90
19348;DHT22;9810;52.480;9.806;2022-08-19T06:12:21;17.90;99.90
19348;DHT22;9810;52.480;9.806;2022-08-19T06:14:51;17.80;99.90
19348;DHT22;9810;52.480;9.806;2022-08-19T06:17:20;17.80;99.90
19348;DHT22;9810;52.480;9.806;2022-08-19T06:19:50;17.80;99.90
19348;DHT22;9810;52.480;9.806;2022-08-19T06:22:18;18.10;99.90
19348;DHT22;9810;52.480;9.806;2022-08-19T06:24:45;18.10;99.90
19348;DHT22;9810;52.480;9.806;2022-08-19T06:27:14;17.90;99.90
19348;DHT22;9810;52.480;9.806;2022-08-19T06:29:41;17.90;99.90
19348;DHT22;9810;52.480;9.806;2022-08-19T06:32:09;17.90;99.90
19348;DHT22;9810;52.480;9.806;2022-08-19T06:34:36;17.80;99.90
19348;DHT22;9810;52.480;9.806;2022-08-19T06:37:05;17.80;99.90
19348;DHT22;9810;52.480;9.806;2022-08-19T06:39:34;18.00;99.90
19348;DHT22;9810;52.480;9.806;2022-08-19T06:42:04;18.00;99.90
19348;DHT22;9810;52.480;9.806;2022-08-19T06:44:36;17.80;99.90
19348;DHT22;9810;52.480;9.806;2022-08-19T06:47:06;17.80;99.90
19348;DHT22;9810;52.480;9.806;2022-08-19T06:49:34;17.80;99.90
19348;DHT22;9810;52.480;9.806;2022-08-19T06:52:03;17.80;99.90
19348;DHT22;9810;52.480;9.806;2022-08-19T06:54:31;18.00;99.90
19348;DHT22;9810;52.480;9.806;2022-08-19T06:57:00;18.10;99.90
19348;DHT22;9810;52.480;9.806;2022-08-19T06:59:29;18.10;99.90
19348;DHT22;9810;52.480;9.806;2022-08-19T07:02:03;18.20;99.90
19348;DHT22;9810;52.480;9.806;2022-08-19T07:04:33;18.10;99.90
19348;DHT22;9810;52.480;9.806;2022-08-19T07:07:03;18.10;99.90
19348;DHT22;9810;52.480;9.806;2022-08-19T07:09:34;18.20;99.90
19348;DHT22;9810;52.480;9.806;2022-08-19T07:12:03;18.30;99.90
19348;DHT22;9810;52.480;9.806;2022-08-19T07:14:34;18.40;99.90
19348;DHT22;9810;52.480;9.806;2022-08-19T07:17:06;18.70;99.90
19348;DHT22;9810;52.480;9.806;2022-08-19T07:19:34;18.70;99.90
19348;DHT22;9810;52.480;9.806;2022-08-19T07:22:18;18.80;99.90
19348;DHT22;9810;52.480;9.806;2022-08-19T07:24:48;18.80;99.90
19348;DHT22;9810;52.480;9.806;2022-08-19T07:27:15;18.60;99.90
19348;DHT22;9810;52.480;9.806;2022-08-19T07:29:43;18.70;99.90
19348;DHT22;9810;52.480;9.806;2022-08-19T07:32:13;18.70;99.90
19348;DHT22;9810;52.480;9.806;2022-08-19T07:34:40;18.90;99.90
19348;DHT22;9810;52.480;9.806;2022-08-19T07:37:07;19.10;99.90
19348;DHT22;9810;52.480;9.806;2022-08-19T07:39:36;19.60;99.90
19348;DHT22;9810;52.480;9.806;2022-08-19T07:42:08;19.60;99.90
19348;DHT22;9810;52.480;9.806;2022-08-19T07:44:37;20.00;99.90
19348;DHT22;9810;52.480;9.806;2022-08-19T07:47:05;20.30;99.90
19348;DHT22;9810;52.480;9.806;2022-08-19T07:49:34;20.50;99.90
19348;DHT22;9810;52.480;9.806;2022-08-19T07:52:04;20.40;99.90
19348;DHT22;9810;52.480;9.806;2022-08-19T07:54:34;20.40;99.90
19348;DHT22;9810;52.480;9.806;2022-08-19T07:57:03;20.30;99.90
19348;DHT22;9810;52.480;9.806;2022-08-19T07:59:31;20.30;99.90
19348;DHT22;9810;52.480;9.806;2022-08-19T08:02:03;20.60;99.90
19348;DHT22;9810;52.480;9.806;2022-08-19T08:04:32;20.70;99.90
19348;DHT22;9810;52.480;9.806;2022-08-19T08:07:17;20.40;99.90
19348;DHT22;9810;52.480;9.806;2022-08-19T08:10:04;20.60;99.90
19348;DHT22;9810;52.480;9.806;2022-08-19T08:12:38;20.90;99.90
19348;DHT22;9810;52.480;9.806;2022-08-19T08:15:11;20.90;99.90
19348;DHT22;9810;52.480;9.806;2022-08-19T08:17:42;20.70;99.90
19348;DHT22;9810;52.480;9.806;2022-08-19T08:20:13;20.70;99.90
19348;DHT22;9810;52.480;9.806;2022-08-19T08:22:43;20.40;99.90
19348;DHT22;9810;52.480;9.806;2022-08-19T08:25:28;20.50;99.90
19348;DHT22;9810;52.480;9.806;2022-08-19T08:27:58;20.60;99.90
19348;DHT22;9810;52.480;9.806;2022-08-19T08:30:28;20.80;99.90
19348;DHT22;9810;52.480;9.806;2022-08-19T08:32:55;20.80;99.90
19348;DHT22;9810;52.480;9.806;2022-08-19T08:35:24;21.10;99.90
19348;DHT22;9810;52.480;9.806;2022-08-19T08:37:54;21.00;99.90
19348;DHT22;9810;52.480;9.806;2022-08-19T08:40:28;21.20;99.90
19348;DHT22;9810;52.480;9.806;2022-08-19T08:42:59;22.00;99.90
19348;DHT22;9810;52.480;9.806;2022-08-19T08:45:30;22.80;99.90
19348;DHT22;9810;52.480;9.806;2022-08-19T08:48:02;23.00;99.90
19348;DHT22;9810;52.480;9.806;2022-08-19T08:50:38;22.70;99.90
19348;DHT22;9810;52.480;9.806;2022-08-19T08:53:07;22.90;99.90
19348;DHT22;9810;52.480;9.806;2022-08-19T08:55:35;23.20;99.90
19348;DHT22;9810;52.480;9.806;2022-08-19T08:58:05;23.60;99.90
19348;DHT22;9810;52.480;9.806;2022-08-19T09:00:36;23.70;99.90
19348;DHT22;9810;52.480;9.806;2022-08-19T09:03:06;23.40;99.90
19348;DHT22;9810;52.480;9.806;2022-08-19T09:05:45;23.00;99.90
19348;DHT22;9810;52.480;9.806;2022-08-19T09:08:21;23.10;99.90
19348;DHT22;9810;52.480;9.806;2022-08-19T09:10:54;22.60;99.90
19348;DHT22;9810;52.480;9.806;2022-08-19T09:13:41;22.70;99.90
19348;DHT22;9810;52.480;9.806;2022-08-19T09:16:12;22.30;99.90
19348;DHT22;9810;52.480;9.806;2022-08-19T09:18:43;22.60;99.90
19348;DHT22;9810;52.480;9.806;2022-08-19T09:21:13;23.00;99.90
19348;DHT22;9810;52.480;9.806;2022-08-19T09:23:41;22.80;99.90
19348;DHT22;9810;52.480;9.806;2022-08-19T09:26:10;22.40;99.90
19348;DHT22;9810;52.480;9.806;2022-08-19T09:28:39;22.60;99.90
19348;DHT22;9810;52.480;9.806;2022-08-19T09:31:06;22.80;99.90
19348;DHT22;9810;52.480;9.806;2022-08-19T09:33:34;23.30;99.90
19348;DHT22;9810;52.480;9.806;2022-08-19T09:36:03;23.00;99.90
19348;DHT22;9810;52.480;9.806;2022-08-19T09:38:32;22.70;99.90
19348;DHT22;9810;52.480;9.806;2022-08-19T09:41:03;23.00;99.90
19348;DHT22;9810;52.480;9.806;2022-08-19T09:43:32;23.30;99.90
19348;DHT22;9810;52.480;9.806;2022-08-19T09:46:02;24.10;99.90
19348;DHT22;9810;52.480;9.806;2022-08-19T09:48:31;24.00;99.90
19348;DHT22;9810;52.480;9.806;2022-08-19T09:51:03;24.80;99.90
19348;DHT22;9810;52.480;9.806;2022-08-19T09:53:33;26.30;99.90
19348;DHT22;9810;52.480;9.806;2022-08-19T09:56:01;26.40;99.90
19348;DHT22;9810;52.480;9.806;2022-08-19T09:58:29;25.70;99.90
19348;DHT22;9810;52.480;9.806;2022-08-19T10:00:57;25.60;99.90
19348;DHT22;9810;52.480;9.806;2022-08-19T10:03:26;25.30;99.90
19348;DHT22;9810;52.480;9.806;2022-08-19T10:05:53;25.30;99.90
19348;DHT22;9810;52.480;9.806;2022-08-19T10:08:24;26.40;99.90
19348;DHT22;9810;52.480;9.806;2022-08-19T10:10:54;26.90;99.90
19348;DHT22;9810;52.480;9.806;2022-08-19T10:13:23;26.80;99.90
19348;DHT22;9810;52.480;9.806;2022-08-19T10:15:52;27.30;99.90
19348;DHT22;9810;52.480;9.806;2022-08-19T10:18:21;26.70;99.90
19348;DHT22;9810;52.480;9.806;2022-08-19T10:20:50;26.90;99.90
19348;DHT22;9810;52.480;9.806;2022-08-19T10:23:20;27.00;99.90
19348;DHT22;9810;52.480;9.806;2022-08-19T10:25:48;27.20;99.90
19348;DHT22;9810;52.480;9.806;2022-08-19T10:28:18;26.90;99.90
19348;DHT22;9810;52.480;9.806;2022-08-19T10:30:46;26.60;99.90
19348;DHT22;9810;52.480;9.806;2022-08-19T10:33:13;25.90;99.90
19348;DHT22;9810;52.480;9.806;2022-08-19T10:35:40;25.60;99.90
19348;DHT22;9810;52.480;9.806;2022-08-19T10:38:07;25.70;99.90
19348;DHT22;9810;52.480;9.806;2022-08-19T10:40:34;26.30;99.90
19348;DHT22;9810;52.480;9.806;2022-08-19T10:43:02;26.10;99.90
19348;DHT22;9810;52.480;9.806;2022-08-19T10:45:30;27.30;99.90
19348;DHT22;9810;52.480;9.806;2022-08-19T10:47:58;28.70;99.90
19348;DHT22;9810;52.480;9.806;2022-08-19T10:50:25;28.50;99.90
19348;DHT22;9810;52.480;9.806;2022-08-19T10:53:09;28.80;99.90
19348;DHT22;9810;52.480;9.806;2022-08-19T10:55:37;29.20;99.90
19348;DHT22;9810;52.480;9.806;2022-08-19T10:58:21;30.20;99.90
19348;DHT22;9810;52.480;9.806;2022-08-19T11:00:54;31.00;99.90
19348;DHT22;9810;52.480;9.806;2022-08-19T11:03:22;31.10;99.90
19348;DHT22;9810;52.480;9.806;2022-08-19T11:05:57;31.20;99.90
19348;DHT22;9810;52.480;9.806;2022-08-19T11:08:25;30.30;99.90
19348;DHT22;9810;52.480;9.806;2022-08-19T11:10:53;30.00;99.90
19348;DHT22;9810;52.480;9.806;2022-08-19T11:13:22;29.70;99.90
19348;DHT22;9810;52.480;9.806;2022-08-19T11:15:58;29.20;99.90
19348;DHT22;9810;52.480;9.806;2022-08-19T11:18:25;28.60;99.90
19348;DHT22;9810;52.480;9.806;2022-08-19T11:20:52;28.50;99.90
19348;DHT22;9810;52.480;9.806;2022-08-19T11:23:20;28.00;99.90
19348;DHT22;9810;52.480;9.806;2022-08-19T11:25:47;28.10;99.90
19348;DHT22;9810;52.480;9.806;2022-08-19T11:28:16;28.10;99.90
19348;DHT22;9810;52.480;9.806;2022-08-19T11:30:43;27.70;99.90
19348;DHT22;9810;52.480;9.806;2022-08-19T11:33:12;27.30;99.90
19348;DHT22;9810;52.480;9.806;2022-08-19T11:35:39;26.90;99.90
19348;DHT22;9810;52.480;9.806;2022-08-19T11:38:06;26.60;99.90
19348;DHT22;9810;52.480;9.806;2022-08-19T11:40:34;27.30;99.90
19348;DHT22;9810;52.480;9.806;2022-08-19T11:43:01;27.10;99.90
19348;DHT22;9810;52.480;9.806;2022-08-19T11:45:30;26.70;99.90
19348;DHT22;9810;52.480;9.806;2022-08-19T11:47:58;27.20;99.90
19348;DHT22;9810;52.480;9.806;2022-08-19T11:50:26;27.40;99.90
19348;DHT22;9810;52.480;9.806;2022-08-19T11:52:55;27.00;99.90
19348;DHT22;9810;52.480;9.806;2022-08-19T11:55:22;27.10;99.90
19348;DHT22;9810;52.480;9.806;2022-08-19T11:57:50;27.20;99.90
19348;DHT22;9810;52.480;9.806;2022-08-19T12:00:17;27.10;99.90
19348;DHT22;9810;52.480;9.806;2022-08-19T12:02:44;27.30;99.90
19348;DHT22;9810;52.480;9.806;2022-08-19T12:05:15;27.20;99.90
19348;DHT22;9810;52.480;9.806;2022-08-19T12:07:44;27.00;99.90
19348;DHT22;9810;52.480;9.806;2022-08-19T12:10:12;26.60;99.90
19348;DHT22;9810;52.480;9.806;2022-08-19T12:12:40;27.00;99.90
19348;DHT22;9810;52.480;9.806;2022-08-19T12:15:09;27.30;99.90
19348;DHT22;9810;52.480;9.806;2022-08-19T12:17:38;27.20;99.90
19348;DHT22;9810;52.480;9.806;2022-08-19T12:20:10;27.20;99.90
19348;DHT22;9810;52.480;9.806;2022-08-19T12:22:38;27.30;99.90
19348;DHT22;9810;52.480;9.806;2022-08-19T12:25:10;27.00;99.90
19348;DHT22;9810;52.480;9.806;2022-08-19T12:27:38;26.50;99.90
19348;DHT22;9810;52.480;9.806;2022-08-19T12:30:07;26.20;99.90
19348;DHT22;9810;52.480;9.806;2022-08-19T12:32:35;26.30;99.90
19348;DHT22;9810;52.480;9.806;2022-08-19T12:35:02;26.20;99.90
19348;DHT22;9810;52.480;9.806;2022-08-19T12:37:30;26.60;99.90
19348;DHT22;9810;52.480;9.806;2022-08-19T12:39:58;26.50;99.90
19348;DHT22;9810;52.480;9.806;2022-08-19T12:42:28;26.40;99.90
19348;DHT22;9810;52.480;9.806;2022-08-19T12:44:56;26.50;99.90
19348;DHT22;9810;52.480;9.806;2022-08-19T12:47:23;26.50;99.90
19348;DHT22;9810;52.480;9.806;2022-08-19T12:49:53;26.60;99.90
19348;DHT22;9810;52.480;9.806;2022-08-19T12:52:23;26.90;99.90
19348;DHT22;9810;52.480;9.806;2022-08-19T12:54:53;26.80;99.90
19348;DHT22;9810;52.480;9.806;2022-08-19T12:57:22;26.80;99.90
19348;DHT22;9810;52.480;9.806;2022-08-19T12:59:53;27.00;99.90
19348;DHT22;9810;52.480;9.806;2022-08-19T13:02:20;27.00;99.90
19348;DHT22;9810;52.480;9.806;2022-08-19T13:04:48;26.90;99.90
19348;DHT22;9810;52.480;9.806;2022-08-19T13:07:15;26.80;99.90
19348;DHT22;9810;52.480;9.806;2022-08-19T13:09:42;26.60;99.90
19348;DHT22;9810;52.480;9.806;2022-08-19T13:12:10;26.50;99.90
19348;DHT22;9810;52.480;9.806;2022-08-19T13:14:38;26.70;99.90
19348;DHT22;9810;52.480;9.806;2022-08-19T13:17:08;26.80;99.90
19348;DHT22;9810;52.480;9.806;2022-08-19T13:19:37;26.60;99.90
19348;DHT22;9810;52.480;9.806;2022-08-19T13:22:05;26.40;99.90
19348;DHT22;9810;52.480;9.806;2022-08-19T13:24:35;26.20;99.90
19348;DHT22;9810;52.480;9.806;2022-08-19T13:27:07;26.60;99.90
19348;DHT22;9810;52.480;9.806;2022-08-19T13:29:34;26.50;99.90
19348;DHT22;9810;52.480;9.806;2022-08-19T13:32:19;26.50;99.90
19348;DHT22;9810;52.480;9.806;2022-08-19T13:35:05;26.50;99.90
19348;DHT22;9810;52.480;9.806;2022-08-19T13:37:32;26.60;99.90
19348;DHT22;9810;52.480;9.806;2022-08-19T13:40:18;26.60;99.90
19348;DHT22;9810;52.480;9.806;2022-08-19T13:42:49;26.50;99.90
19348;DHT22;9810;52.480;9.806;2022-08-19T13:45:20;26.60;99.90
19348;DHT22;9810;52.480;9.806;2022-08-19T13:47:51;26.70;99.90
19348;DHT22;9810;52.480;9.806;2022-08-19T13:50:22;26.80;99.90
19348;DHT22;9810;52.480;9.806;2022-08-19T13:52:51;26.60;99.90
19348;DHT22;9810;52.480;9.806;2022-08-19T13:55:18;26.80;99.90
19348;DHT22;9810;52.480;9.806;2022-08-19T13:57:46;26.80;99.90
19348;DHT22;9810;52.480;9.806;2022-08-19T14:00:18;27.10;99.90
19348;DHT22;9810;52.480;9.806;2022-08-19T14:02:46;26.70;99.90
19348;DHT22;9810;52.480;9.806;2022-08-19T14:05:16;26.60;99.90
19348;DHT22;9810;52.480;9.806;2022-08-19T14:07:43;27.00;99.90
19348;DHT22;9810;52.480;9.806;2022-08-19T14:10:12;26.90;99.90
19348;DHT22;9810;52.480;9.806;2022-08-19T14:12:40;27.00;99.90
19348;DHT22;9810;52.480;9.806;2022-08-19T14:15:09;27.10;99.90
19348;DHT22;9810;52.480;9.806;2022-08-19T14:17:37;27.20;99.90
19348;DHT22;9810;52.480;9.806;2022-08-19T14:20:07;27.40;99.90
19348;DHT22;9810;52.480;9.806;2022-08-19T14:22:38;27.20;99.90
19348;DHT22;9810;52.480;9.806;2022-08-19T14:25:09;27.10;99.90
19348;DHT22;9810;52.480;9.806;2022-08-19T14:27:38;27.20;99.90
19348;DHT22;9810;52.480;9.806;2022-08-19T14:30:09;26.80;99.90
19348;DHT22;9810;52.480;9.806;2022-08-19T14:32:41;26.80;99.90
19348;DHT22;9810;52.480;9.806;2022-08-19T14:35:09;27.00;99.90
19348;DHT22;9810;52.480;9.806;2022-08-19T14:37:40;27.20;99.90
19348;DHT22;9810;52.480;9.806;2022-08-19T14:40:09;27.20;99.90
19348;DHT22;9810;52.480;9.806;2022-08-19T14:42:37;27.30;99.90
19348;DHT22;9810;52.480;9.806;2022-08-19T14:45:05;27.10;99.90
19348;DHT22;9810;52.480;9.806;2022-08-19T14:47:33;27.10;99.90
19348;DHT22;9810;52.480;9.806;2022-08-19T14:50:00;26.90;99.90
19348;DHT22;9810;52.480;9.806;2022-08-19T14:52:28;26.80;99.90
19348;DHT22;9810;52.480;9.806;2022-08-19T14:54:56;26.80;99.90
19348;DHT22;9810;52.480;9.806;2022-08-19T14:57:24;26.60;99.90
19348;DHT22;9810;52.480;9.806;2022-08-19T14:59:51;26.60;99.90
19348;DHT22;9810;52.480;9.806;2022-08-19T15:02:18;26.70;99.90
19348;DHT22;9810;52.480;9.806;2022-08-19T15:04:45;26.90;99.90
19348;DHT22;9810;52.480;9.806;2022-08-19T15:07:13;27.10;99.90
19348;DHT22;9810;52.480;9.806;2022-08-19T15:09:40;27.10;99.90
19348;DHT22;9810;52.480;9.806;2022-08-19T15:12:08;27.00;99.90
19348;DHT22;9810;52.480;9.806;2022-08-19T15:14:36;26.90;99.90
19348;DHT22;9810;52.480;9.806;2022-08-19T15:17:04;26.50;99.90
19348;DHT22;9810;52.480;9.806;2022-08-19T15:19:32;26.50;99.90
19348;DHT22;9810;52.480;9.806;2022-08-19T15:22:01;26.50;99.90
19348;DHT22;9810;52.480;9.806;2022-08-19T15:24:29;26.40;99.90
19348;DHT22;9810;52.480;9.806;2022-08-19T15:26:56;26.50;99.90
19348;DHT22;9810;52.480;9.806;2022-08-19T15:29:25;26.60;99.90
19348;DHT22;9810;52.480;9.806;2022-08-19T15:31:53;26.60;99.90
19348;DHT22;9810;52.480;9.806;2022-08-19T15:34:22;26.90;99.90
19348;DHT22;9810;52.480;9.806;2022-08-19T15:36:50;26.80;99.90
19348;DHT22;9810;52.480;9.806;2022-08-19T15:39:18;26.70;99.90
19348;DHT22;9810;52.480;9.806;2022-08-19T15:41:46;26.50;99.90
19348;DHT22;9810;52.480;9.806;2022-08-19T15:44:16;26.50;99.90
19348;DHT22;9810;52.480;9.806;2022-08-19T15:46:46;26.60;99.90
19348;DHT22;9810;52.480;9.806;2022-08-19T15:49:16;26.70;99.90
19348;DHT22;9810;52.480;9.806;2022-08-19T15:51:45;26.60;99.90
19348;DHT22;9810;52.480;9.806;2022-08-19T15:54:19;26.80;99.90
19348;DHT22;9810;52.480;9.806;2022-08-19T15:56:48;26.60;99.90
19348;DHT22;9810;52.480;9.806;2022-08-19T15:59:34;26.50;99.90